Hewlett Harbor, New York
Current Conditions -  °F | °C
As of 11:12 PM on Sunday 21 Dec 2014 (Local Time) from KJFK Reporting Station
Overcast Overcast  
Wind Chill: 31°   Ceiling: 1100
Heat Index: 37°   Visibility: 10mi
Dew Point: 30°   Wind: 8mph
Humidity: 75%   Direction: 10°N
Pressure: 30.34"   Gusts: NA
Location:  40.637°N, 73.6912°W
Report Text: KJFK 220412Z 01007KT 10SM BKN011 OVC021 03/M01 A3034 RMK AO2 $
Loading
Personal Weather Stations






























Interactive Weather Map New forecast layout! Learn more

10-Day Weather Forecast

Advertisements
Track Severe Weather on mobile